Argonne, Wisconsin
Current Conditions -  °F | °C
As of 8:35 PM on Thursday 20 Nov 2014 (Local Time) from KEGV Reporting Station
Overcast Overcast  
Wind Chill: -3°   Ceiling: 3600
Heat Index: 10°   Visibility: 7mi
Dew Point:   Wind: 9mph
Humidity: 74%   Direction: 290°WNW
Pressure: 30.07"   Gusts: NA
Location:  45.66°N, 88.88°W
Report Text: KEGV 210235Z AUTO 29008KT 7SM OVC036 M12/M16 A3007 RMK AO2 T11231160
Loading
Personal Weather Stations






























Interactive Weather Map New forecast layout! Learn more

10-Day Weather Forecast

Advertisements
Track Severe Weather on mobile